sensor_id;sensor_type;location;lat;lon;timestamp;P1;durP1;ratioP1;P2;durP2;ratioP2
11228;SDS011;5671;47.936;8.716;2024-02-21T00:02:22;4.20;;;2.17;;
11228;SDS011;5671;47.936;8.716;2024-02-21T00:04:49;6.17;;;2.17;;
11228;SDS011;5671;47.936;8.716;2024-02-21T00:07:16;4.90;;;2.10;;
11228;SDS011;5671;47.936;8.716;2024-02-21T00:09:42;5.33;;;1.70;;
11228;SDS011;5671;47.936;8.716;2024-02-21T00:12:11;4.57;;;2.10;;
11228;SDS011;5671;47.936;8.716;2024-02-21T00:14:39;4.23;;;2.30;;
11228;SDS011;5671;47.936;8.716;2024-02-21T00:17:06;5.07;;;2.20;;
11228;SDS011;5671;47.936;8.716;2024-02-21T00:19:33;4.43;;;2.23;;
11228;SDS011;5671;47.936;8.716;2024-02-21T00:22:00;3.07;;;1.80;;
11228;SDS011;5671;47.936;8.716;2024-02-21T00:24:27;6.03;;;2.30;;
11228;SDS011;5671;47.936;8.716;2024-02-21T00:26:54;3.90;;;2.53;;
11228;SDS011;5671;47.936;8.716;2024-02-21T00:29:22;6.23;;;2.40;;
11228;SDS011;5671;47.936;8.716;2024-02-21T00:31:49;4.10;;;2.90;;
11228;SDS011;5671;47.936;8.716;2024-02-21T00:34:16;5.97;;;3.50;;
11228;SDS011;5671;47.936;8.716;2024-02-21T00:36:43;6.90;;;4.43;;
11228;SDS011;5671;47.936;8.716;2024-02-21T00:39:10;7.30;;;3.43;;
11228;SDS011;5671;47.936;8.716;2024-02-21T00:41:37;6.73;;;3.13;;
11228;SDS011;5671;47.936;8.716;2024-02-21T00:44:04;6.23;;;2.70;;
11228;SDS011;5671;47.936;8.716;2024-02-21T00:46:33;4.53;;;2.30;;
11228;SDS011;5671;47.936;8.716;2024-02-21T00:48:59;6.57;;;2.30;;
11228;SDS011;5671;47.936;8.716;2024-02-21T00:51:26;5.30;;;2.50;;
11228;SDS011;5671;47.936;8.716;2024-02-21T00:53:53;4.97;;;2.43;;
11228;SDS011;5671;47.936;8.716;2024-02-21T00:56:20;4.33;;;2.57;;
11228;SDS011;5671;47.936;8.716;2024-02-21T00:58:47;4.87;;;2.60;;
11228;SDS011;5671;47.936;8.716;2024-02-21T01:01:20;4.53;;;2.40;;
11228;SDS011;5671;47.936;8.716;2024-02-21T01:03:49;9.07;;;2.63;;
11228;SDS011;5671;47.936;8.716;2024-02-21T01:06:18;4.90;;;2.40;;
11228;SDS011;5671;47.936;8.716;2024-02-21T01:08:45;5.43;;;2.33;;
11228;SDS011;5671;47.936;8.716;2024-02-21T01:11:12;5.00;;;2.30;;
11228;SDS011;5671;47.936;8.716;2024-02-21T01:13:39;4.77;;;2.20;;
11228;SDS011;5671;47.936;8.716;2024-02-21T01:16:06;6.97;;;2.60;;
11228;SDS011;5671;47.936;8.716;2024-02-21T01:18:33;5.37;;;3.37;;
11228;SDS011;5671;47.936;8.716;2024-02-21T01:21:01;5.93;;;2.63;;
11228;SDS011;5671;47.936;8.716;2024-02-21T01:23:31;4.70;;;2.07;;
11228;SDS011;5671;47.936;8.716;2024-02-21T01:25:58;3.43;;;1.90;;
11228;SDS011;5671;47.936;8.716;2024-02-21T01:28:25;3.27;;;1.93;;
11228;SDS011;5671;47.936;8.716;2024-02-21T01:30:52;3.63;;;2.27;;
11228;SDS011;5671;47.936;8.716;2024-02-21T01:33:19;4.17;;;2.17;;
11228;SDS011;5671;47.936;8.716;2024-02-21T01:35:46;3.90;;;2.20;;
11228;SDS011;5671;47.936;8.716;2024-02-21T01:38:14;4.37;;;2.33;;
11228;SDS011;5671;47.936;8.716;2024-02-21T01:40:41;3.33;;;1.87;;
11228;SDS011;5671;47.936;8.716;2024-02-21T01:43:15;5.40;;;2.17;;
11228;SDS011;5671;47.936;8.716;2024-02-21T01:45:42;4.67;;;2.33;;
11228;SDS011;5671;47.936;8.716;2024-02-21T01:48:10;3.67;;;2.17;;
11228;SDS011;5671;47.936;8.716;2024-02-21T01:50:36;5.43;;;2.40;;
11228;SDS011;5671;47.936;8.716;2024-02-21T01:53:03;5.67;;;2.40;;
11228;SDS011;5671;47.936;8.716;2024-02-21T01:55:31;9.03;;;2.27;;
11228;SDS011;5671;47.936;8.716;2024-02-21T01:57:59;5.23;;;2.13;;
11228;SDS011;5671;47.936;8.716;2024-02-21T02:00:26;6.57;;;2.27;;
11228;SDS011;5671;47.936;8.716;2024-02-21T02:02:53;5.57;;;2.33;;
11228;SDS011;5671;47.936;8.716;2024-02-21T02:05:21;4.03;;;1.87;;
11228;SDS011;5671;47.936;8.716;2024-02-21T02:07:48;6.97;;;2.60;;
11228;SDS011;5671;47.936;8.716;2024-02-21T02:10:15;6.83;;;2.73;;
11228;SDS011;5671;47.936;8.716;2024-02-21T02:12:43;3.13;;;2.27;;
11228;SDS011;5671;47.936;8.716;2024-02-21T02:15:10;6.07;;;2.03;;
11228;SDS011;5671;47.936;8.716;2024-02-21T02:17:37;7.80;;;3.10;;
11228;SDS011;5671;47.936;8.716;2024-02-21T02:20:04;3.30;;;2.23;;
11228;SDS011;5671;47.936;8.716;2024-02-21T02:22:32;3.93;;;2.20;;
11228;SDS011;5671;47.936;8.716;2024-02-21T02:25:04;4.73;;;2.30;;
11228;SDS011;5671;47.936;8.716;2024-02-21T02:27:31;3.37;;;1.83;;
11228;SDS011;5671;47.936;8.716;2024-02-21T02:29:58;3.90;;;1.90;;
11228;SDS011;5671;47.936;8.716;2024-02-21T02:32:25;6.90;;;2.47;;
11228;SDS011;5671;47.936;8.716;2024-02-21T02:34:52;3.00;;;1.87;;
11228;SDS011;5671;47.936;8.716;2024-02-21T02:37:18;6.83;;;2.17;;
11228;SDS011;5671;47.936;8.716;2024-02-21T02:39:45;4.70;;;2.23;;
11228;SDS011;5671;47.936;8.716;2024-02-21T02:42:14;4.87;;;2.10;;
11228;SDS011;5671;47.936;8.716;2024-02-21T02:44:41;3.13;;;2.07;;
11228;SDS011;5671;47.936;8.716;2024-02-21T02:47:08;5.50;;;2.53;;
11228;SDS011;5671;47.936;8.716;2024-02-21T02:49:35;6.37;;;2.40;;
11228;SDS011;5671;47.936;8.716;2024-02-21T02:52:02;6.83;;;2.73;;
11228;SDS011;5671;47.936;8.716;2024-02-21T02:54:29;5.20;;;2.30;;
11228;SDS011;5671;47.936;8.716;2024-02-21T02:56:56;3.73;;;2.30;;
11228;SDS011;5671;47.936;8.716;2024-02-21T02:59:24;8.87;;;2.43;;
11228;SDS011;5671;47.936;8.716;2024-02-21T03:01:50;5.40;;;2.40;;
11228;SDS011;5671;47.936;8.716;2024-02-21T03:04:17;9.00;;;2.43;;
11228;SDS011;5671;47.936;8.716;2024-02-21T03:06:44;6.80;;;2.10;;
11228;SDS011;5671;47.936;8.716;2024-02-21T03:09:11;3.87;;;2.20;;
11228;SDS011;5671;47.936;8.716;2024-02-21T03:11:38;3.93;;;2.10;;
11228;SDS011;5671;47.936;8.716;2024-02-21T03:14:05;5.53;;;2.57;;
11228;SDS011;5671;47.936;8.716;2024-02-21T03:16:34;5.40;;;2.43;;
11228;SDS011;5671;47.936;8.716;2024-02-21T03:19:00;3.97;;;2.10;;
11228;SDS011;5671;47.936;8.716;2024-02-21T03:21:28;6.23;;;2.67;;
11228;SDS011;5671;47.936;8.716;2024-02-21T03:23:55;7.13;;;2.60;;
11228;SDS011;5671;47.936;8.716;2024-02-21T03:26:22;4.40;;;1.70;;
11228;SDS011;5671;47.936;8.716;2024-02-21T03:28:48;5.47;;;2.40;;
11228;SDS011;5671;47.936;8.716;2024-02-21T03:31:15;6.80;;;2.50;;
11228;SDS011;5671;47.936;8.716;2024-02-21T03:33:43;5.77;;;2.40;;
11228;SDS011;5671;47.936;8.716;2024-02-21T03:36:13;4.23;;;1.93;;
11228;SDS011;5671;47.936;8.716;2024-02-21T03:38:40;4.83;;;2.37;;
11228;SDS011;5671;47.936;8.716;2024-02-21T03:41:07;5.37;;;2.57;;
11228;SDS011;5671;47.936;8.716;2024-02-21T03:43:34;5.37;;;2.23;;
11228;SDS011;5671;47.936;8.716;2024-02-21T03:46:00;3.03;;;1.90;;
11228;SDS011;5671;47.936;8.716;2024-02-21T03:48:27;6.07;;;1.97;;
11228;SDS011;5671;47.936;8.716;2024-02-21T03:50:55;2.80;;;1.80;;
11228;SDS011;5671;47.936;8.716;2024-02-21T03:53:22;5.40;;;1.70;;
11228;SDS011;5671;47.936;8.716;2024-02-21T03:55:49;4.13;;;1.80;;
11228;SDS011;5671;47.936;8.716;2024-02-21T03:58:16;4.60;;;2.13;;
11228;SDS011;5671;47.936;8.716;2024-02-21T04:00:43;4.87;;;2.13;;
11228;SDS011;5671;47.936;8.716;2024-02-21T04:03:09;4.90;;;2.10;;
11228;SDS011;5671;47.936;8.716;2024-02-21T04:05:36;2.97;;;1.87;;
11228;SDS011;5671;47.936;8.716;2024-02-21T04:08:05;5.30;;;2.50;;
11228;SDS011;5671;47.936;8.716;2024-02-21T04:10:32;3.57;;;1.90;;
11228;SDS011;5671;47.936;8.716;2024-02-21T04:12:59;4.43;;;2.07;;
11228;SDS011;5671;47.936;8.716;2024-02-21T04:15:26;4.43;;;2.60;;
11228;SDS011;5671;47.936;8.716;2024-02-21T04:17:53;6.33;;;2.37;;
11228;SDS011;5671;47.936;8.716;2024-02-21T04:20:19;4.00;;;2.50;;
11228;SDS011;5671;47.936;8.716;2024-02-21T04:22:46;3.47;;;2.17;;
11228;SDS011;5671;47.936;8.716;2024-02-21T04:25:15;8.27;;;2.27;;
11228;SDS011;5671;47.936;8.716;2024-02-21T04:27:42;3.90;;;2.10;;
11228;SDS011;5671;47.936;8.716;2024-02-21T04:30:09;3.50;;;2.10;;
11228;SDS011;5671;47.936;8.716;2024-02-21T04:32:36;5.80;;;2.27;;
11228;SDS011;5671;47.936;8.716;2024-02-21T04:35:03;4.23;;;2.20;;
11228;SDS011;5671;47.936;8.716;2024-02-21T04:37:30;3.67;;;1.90;;
11228;SDS011;5671;47.936;8.716;2024-02-21T04:39:57;3.40;;;2.00;;
11228;SDS011;5671;47.936;8.716;2024-02-21T04:42:25;4.47;;;2.00;;
11228;SDS011;5671;47.936;8.716;2024-02-21T04:44:52;2.47;;;1.90;;
11228;SDS011;5671;47.936;8.716;2024-02-21T04:47:19;4.30;;;2.20;;
11228;SDS011;5671;47.936;8.716;2024-02-21T04:49:46;6.93;;;2.23;;
11228;SDS011;5671;47.936;8.716;2024-02-21T04:52:12;5.77;;;1.93;;
11228;SDS011;5671;47.936;8.716;2024-02-21T04:54:39;5.57;;;2.27;;
11228;SDS011;5671;47.936;8.716;2024-02-21T04:57:06;5.23;;;2.20;;
11228;SDS011;5671;47.936;8.716;2024-02-21T04:59:36;6.37;;;2.40;;
11228;SDS011;5671;47.936;8.716;2024-02-21T05:02:04;12.43;;;3.23;;
11228;SDS011;5671;47.936;8.716;2024-02-21T05:04:30;10.30;;;2.63;;
11228;SDS011;5671;47.936;8.716;2024-02-21T05:06:57;5.57;;;2.50;;
11228;SDS011;5671;47.936;8.716;2024-02-21T05:09:26;6.13;;;2.77;;
11228;SDS011;5671;47.936;8.716;2024-02-21T05:11:53;7.57;;;3.03;;
11228;SDS011;5671;47.936;8.716;2024-02-21T05:14:19;7.90;;;2.73;;
11228;SDS011;5671;47.936;8.716;2024-02-21T05:16:48;11.73;;;3.30;;
11228;SDS011;5671;47.936;8.716;2024-02-21T05:19:14;5.93;;;2.10;;
11228;SDS011;5671;47.936;8.716;2024-02-21T05:21:41;4.50;;;2.40;;
11228;SDS011;5671;47.936;8.716;2024-02-21T05:24:08;6.57;;;2.67;;
11228;SDS011;5671;47.936;8.716;2024-02-21T05:26:35;3.60;;;1.90;;
11228;SDS011;5671;47.936;8.716;2024-02-21T05:29:02;5.33;;;1.90;;
11228;SDS011;5671;47.936;8.716;2024-02-21T05:31:33;4.03;;;2.17;;
11228;SDS011;5671;47.936;8.716;2024-02-21T05:34:21;7.00;;;2.27;;
11228;SDS011;5671;47.936;8.716;2024-02-21T05:36:48;5.50;;;2.33;;
11228;SDS011;5671;47.936;8.716;2024-02-21T05:39:15;8.93;;;2.63;;
11228;SDS011;5671;47.936;8.716;2024-02-21T05:41:43;7.07;;;2.33;;
11228;SDS011;5671;47.936;8.716;2024-02-21T05:44:10;7.50;;;2.63;;
11228;SDS011;5671;47.936;8.716;2024-02-21T05:46:37;3.57;;;1.80;;
11228;SDS011;5671;47.936;8.716;2024-02-21T05:49:04;5.10;;;2.30;;
11228;SDS011;5671;47.936;8.716;2024-02-21T05:51:33;4.00;;;2.10;;
11228;SDS011;5671;47.936;8.716;2024-02-21T05:54:00;6.13;;;2.40;;
11228;SDS011;5671;47.936;8.716;2024-02-21T05:56:27;3.47;;;2.03;;
11228;SDS011;5671;47.936;8.716;2024-02-21T05:58:54;4.03;;;2.60;;
11228;SDS011;5671;47.936;8.716;2024-02-21T06:01:21;5.50;;;2.37;;
11228;SDS011;5671;47.936;8.716;2024-02-21T06:03:48;5.63;;;2.50;;
11228;SDS011;5671;47.936;8.716;2024-02-21T06:06:15;7.60;;;2.63;;
11228;SDS011;5671;47.936;8.716;2024-02-21T06:08:43;10.20;;;3.00;;
11228;SDS011;5671;47.936;8.716;2024-02-21T06:11:10;5.80;;;2.60;;
11228;SDS011;5671;47.936;8.716;2024-02-21T06:13:38;11.40;;;2.77;;
11228;SDS011;5671;47.936;8.716;2024-02-21T06:16:06;7.47;;;2.87;;
11228;SDS011;5671;47.936;8.716;2024-02-21T06:18:34;8.00;;;2.27;;
11228;SDS011;5671;47.936;8.716;2024-02-21T06:21:02;7.10;;;2.40;;
11228;SDS011;5671;47.936;8.716;2024-02-21T06:23:29;5.37;;;2.27;;
11228;SDS011;5671;47.936;8.716;2024-02-21T06:25:57;5.27;;;2.63;;
11228;SDS011;5671;47.936;8.716;2024-02-21T06:28:24;6.60;;;2.50;;
11228;SDS011;5671;47.936;8.716;2024-02-21T06:30:51;5.43;;;3.00;;
11228;SDS011;5671;47.936;8.716;2024-02-21T06:33:17;6.23;;;3.00;;
11228;SDS011;5671;47.936;8.716;2024-02-21T06:35:47;8.23;;;3.20;;
11228;SDS011;5671;47.936;8.716;2024-02-21T06:38:17;7.63;;;3.07;;
11228;SDS011;5671;47.936;8.716;2024-02-21T06:40:44;10.50;;;3.50;;
11228;SDS011;5671;47.936;8.716;2024-02-21T06:43:16;14.03;;;3.03;;
11228;SDS011;5671;47.936;8.716;2024-02-21T06:45:44;6.00;;;2.67;;
11228;SDS011;5671;47.936;8.716;2024-02-21T06:48:12;5.63;;;2.83;;
11228;SDS011;5671;47.936;8.716;2024-02-21T06:50:39;5.27;;;2.60;;
11228;SDS011;5671;47.936;8.716;2024-02-21T06:53:06;4.40;;;2.17;;
11228;SDS011;5671;47.936;8.716;2024-02-21T06:55:33;9.73;;;3.33;;
11228;SDS011;5671;47.936;8.716;2024-02-21T06:58:00;5.17;;;3.17;;
11228;SDS011;5671;47.936;8.716;2024-02-21T07:00:29;5.57;;;2.73;;
11228;SDS011;5671;47.936;8.716;2024-02-21T07:02:55;4.30;;;3.03;;
11228;SDS011;5671;47.936;8.716;2024-02-21T07:05:23;5.90;;;2.40;;
11228;SDS011;5671;47.936;8.716;2024-02-21T07:07:50;5.73;;;2.70;;
11228;SDS011;5671;47.936;8.716;2024-02-21T07:10:17;7.13;;;2.97;;
11228;SDS011;5671;47.936;8.716;2024-02-21T07:12:43;9.20;;;2.70;;
11228;SDS011;5671;47.936;8.716;2024-02-21T07:15:10;5.80;;;2.80;;
11228;SDS011;5671;47.936;8.716;2024-02-21T07:17:38;7.80;;;2.73;;
11228;SDS011;5671;47.936;8.716;2024-02-21T07:20:06;6.37;;;2.90;;
11228;SDS011;5671;47.936;8.716;2024-02-21T07:22:33;13.10;;;3.10;;
11228;SDS011;5671;47.936;8.716;2024-02-21T07:25:00;6.90;;;3.30;;
11228;SDS011;5671;47.936;8.716;2024-02-21T07:27:27;10.53;;;3.37;;
11228;SDS011;5671;47.936;8.716;2024-02-21T07:29:56;6.17;;;3.07;;
11228;SDS011;5671;47.936;8.716;2024-02-21T07:32:23;8.23;;;2.77;;
11228;SDS011;5671;47.936;8.716;2024-02-21T07:34:51;5.67;;;2.93;;
11228;SDS011;5671;47.936;8.716;2024-02-21T07:37:18;9.30;;;2.70;;
11228;SDS011;5671;47.936;8.716;2024-02-21T07:39:45;6.17;;;3.20;;
11228;SDS011;5671;47.936;8.716;2024-02-21T07:42:11;13.27;;;3.43;;
11228;SDS011;5671;47.936;8.716;2024-02-21T07:44:38;7.10;;;2.83;;
11228;SDS011;5671;47.936;8.716;2024-02-21T07:47:05;6.57;;;3.27;;
11228;SDS011;5671;47.936;8.716;2024-02-21T07:49:33;5.60;;;2.80;;
11228;SDS011;5671;47.936;8.716;2024-02-21T07:52:07;6.20;;;2.90;;
11228;SDS011;5671;47.936;8.716;2024-02-21T07:54:35;4.63;;;2.87;;
11228;SDS011;5671;47.936;8.716;2024-02-21T07:57:02;5.90;;;3.00;;
11228;SDS011;5671;47.936;8.716;2024-02-21T07:59:29;9.47;;;3.50;;
11228;SDS011;5671;47.936;8.716;2024-02-21T08:01:56;7.40;;;3.10;;
11228;SDS011;5671;47.936;8.716;2024-02-21T08:04:23;8.43;;;2.60;;
11228;SDS011;5671;47.936;8.716;2024-02-21T08:06:51;7.53;;;4.20;;
11228;SDS011;5671;47.936;8.716;2024-02-21T08:09:22;8.90;;;3.50;;
11228;SDS011;5671;47.936;8.716;2024-02-21T08:11:49;6.87;;;3.10;;
11228;SDS011;5671;47.936;8.716;2024-02-21T08:14:16;7.63;;;3.60;;
11228;SDS011;5671;47.936;8.716;2024-02-21T08:16:43;5.53;;;3.93;;
11228;SDS011;5671;47.936;8.716;2024-02-21T08:19:10;5.03;;;3.77;;
11228;SDS011;5671;47.936;8.716;2024-02-21T08:21:37;5.20;;;4.00;;
11228;SDS011;5671;47.936;8.716;2024-02-21T08:24:04;7.07;;;3.83;;
11228;SDS011;5671;47.936;8.716;2024-02-21T08:26:32;6.27;;;3.70;;
11228;SDS011;5671;47.936;8.716;2024-02-21T08:28:58;10.03;;;5.37;;
11228;SDS011;5671;47.936;8.716;2024-02-21T08:31:26;7.70;;;4.87;;
11228;SDS011;5671;47.936;8.716;2024-02-21T08:33:56;6.33;;;4.77;;
11228;SDS011;5671;47.936;8.716;2024-02-21T08:36:27;7.20;;;3.97;;
11228;SDS011;5671;47.936;8.716;2024-02-21T08:38:54;9.57;;;4.03;;
11228;SDS011;5671;47.936;8.716;2024-02-21T08:41:21;5.73;;;3.83;;
11228;SDS011;5671;47.936;8.716;2024-02-21T08:43:50;4.00;;;3.33;;
11228;SDS011;5671;47.936;8.716;2024-02-21T08:46:17;7.43;;;4.50;;
11228;SDS011;5671;47.936;8.716;2024-02-21T08:48:44;5.73;;;3.90;;
11228;SDS011;5671;47.936;8.716;2024-02-21T08:51:12;6.73;;;3.90;;
11228;SDS011;5671;47.936;8.716;2024-02-21T08:53:38;4.43;;;3.43;;
11228;SDS011;5671;47.936;8.716;2024-02-21T08:56:06;6.00;;;3.70;;
11228;SDS011;5671;47.936;8.716;2024-02-21T08:58:34;3.10;;;2.80;;
11228;SDS011;5671;47.936;8.716;2024-02-21T09:01:03;3.73;;;2.80;;
11228;SDS011;5671;47.936;8.716;2024-02-21T09:03:30;7.70;;;4.60;;
11228;SDS011;5671;47.936;8.716;2024-02-21T09:05:58;4.33;;;3.30;;
11228;SDS011;5671;47.936;8.716;2024-02-21T09:08:25;8.33;;;3.67;;
11228;SDS011;5671;47.936;8.716;2024-02-21T09:10:52;5.70;;;2.93;;
11228;SDS011;5671;47.936;8.716;2024-02-21T09:13:19;6.67;;;4.60;;
11228;SDS011;5671;47.936;8.716;2024-02-21T09:15:46;5.20;;;3.30;;
11228;SDS011;5671;47.936;8.716;2024-02-21T09:18:15;5.80;;;3.07;;
11228;SDS011;5671;47.936;8.716;2024-02-21T09:20:42;3.43;;;2.40;;
11228;SDS011;5671;47.936;8.716;2024-02-21T09:23:09;4.13;;;2.57;;
11228;SDS011;5671;47.936;8.716;2024-02-21T09:25:36;3.43;;;2.27;;
11228;SDS011;5671;47.936;8.716;2024-02-21T09:28:03;2.83;;;2.20;;
11228;SDS011;5671;47.936;8.716;2024-02-21T09:30:31;7.93;;;3.00;;
11228;SDS011;5671;47.936;8.716;2024-02-21T09:32:58;4.13;;;2.70;;
11228;SDS011;5671;47.936;8.716;2024-02-21T09:35:27;4.67;;;3.33;;
11228;SDS011;5671;47.936;8.716;2024-02-21T09:37:54;5.20;;;3.20;;
11228;SDS011;5671;47.936;8.716;2024-02-21T09:40:21;3.13;;;2.17;;
11228;SDS011;5671;47.936;8.716;2024-02-21T09:42:49;5.10;;;2.70;;
11228;SDS011;5671;47.936;8.716;2024-02-21T09:45:28;2.37;;;1.87;;
11228;SDS011;5671;47.936;8.716;2024-02-21T09:48:05;3.00;;;1.90;;
11228;SDS011;5671;47.936;8.716;2024-02-21T09:50:46;1.97;;;1.77;;
11228;SDS011;5671;47.936;8.716;2024-02-21T09:53:15;3.37;;;2.50;;
11228;SDS011;5671;47.936;8.716;2024-02-21T09:55:43;3.33;;;2.70;;
11228;SDS011;5671;47.936;8.716;2024-02-21T09:58:11;1.80;;;1.70;;
11228;SDS011;5671;47.936;8.716;2024-02-21T10:00:38;2.27;;;1.90;;
11228;SDS011;5671;47.936;8.716;2024-02-21T10:03:05;2.50;;;1.73;;
11228;SDS011;5671;47.936;8.716;2024-02-21T10:05:35;2.47;;;2.03;;
11228;SDS011;5671;47.936;8.716;2024-02-21T10:08:04;3.77;;;2.60;;
11228;SDS011;5671;47.936;8.716;2024-02-21T10:10:40;3.40;;;3.10;;
11228;SDS011;5671;47.936;8.716;2024-02-21T10:13:08;6.60;;;3.60;;
11228;SDS011;5671;47.936;8.716;2024-02-21T10:15:35;3.47;;;2.40;;
11228;SDS011;5671;47.936;8.716;2024-02-21T10:18:02;2.20;;;2.00;;
11228;SDS011;5671;47.936;8.716;2024-02-21T10:20:31;1.77;;;1.50;;
11228;SDS011;5671;47.936;8.716;2024-02-21T10:23:01;2.53;;;1.77;;
11228;SDS011;5671;47.936;8.716;2024-02-21T10:25:33;2.47;;;1.47;;
11228;SDS011;5671;47.936;8.716;2024-02-21T10:28:00;2.43;;;1.77;;
11228;SDS011;5671;47.936;8.716;2024-02-21T10:30:28;2.73;;;1.97;;
11228;SDS011;5671;47.936;8.716;2024-02-21T10:32:55;2.63;;;2.00;;
11228;SDS011;5671;47.936;8.716;2024-02-21T10:35:26;3.03;;;1.90;;
11228;SDS011;5671;47.936;8.716;2024-02-21T10:37:54;2.30;;;2.00;;
11228;SDS011;5671;47.936;8.716;2024-02-21T10:40:23;2.13;;;1.67;;
11228;SDS011;5671;47.936;8.716;2024-02-21T10:42:52;3.10;;;2.20;;
11228;SDS011;5671;47.936;8.716;2024-02-21T10:45:24;2.07;;;1.87;;
11228;SDS011;5671;47.936;8.716;2024-02-21T10:47:55;1.90;;;1.70;;
11228;SDS011;5671;47.936;8.716;2024-02-21T10:50:26;3.67;;;2.00;;
11228;SDS011;5671;47.936;8.716;2024-02-21T10:53:04;2.67;;;1.77;;
11228;SDS011;5671;47.936;8.716;2024-02-21T10:55:41;2.63;;;1.87;;
11228;SDS011;5671;47.936;8.716;2024-02-21T10:58:12;3.17;;;2.13;;
11228;SDS011;5671;47.936;8.716;2024-02-21T11:00:40;2.73;;;2.20;;
11228;SDS011;5671;47.936;8.716;2024-02-21T11:03:08;2.73;;;2.00;;
11228;SDS011;5671;47.936;8.716;2024-02-21T11:05:36;1.90;;;1.73;;
11228;SDS011;5671;47.936;8.716;2024-02-21T11:08:03;3.43;;;2.73;;
11228;SDS011;5671;47.936;8.716;2024-02-21T11:10:32;5.63;;;1.70;;
11228;SDS011;5671;47.936;8.716;2024-02-21T11:13:08;3.73;;;2.30;;
11228;SDS011;5671;47.936;8.716;2024-02-21T11:15:35;3.07;;;2.27;;
11228;SDS011;5671;47.936;8.716;2024-02-21T11:18:02;3.00;;;2.40;;
11228;SDS011;5671;47.936;8.716;2024-02-21T11:20:32;3.87;;;2.40;;
11228;SDS011;5671;47.936;8.716;2024-02-21T11:23:00;2.90;;;2.43;;
11228;SDS011;5671;47.936;8.716;2024-02-21T11:25:27;3.40;;;2.73;;
11228;SDS011;5671;47.936;8.716;2024-02-21T11:27:59;2.40;;;2.20;;
11228;SDS011;5671;47.936;8.716;2024-02-21T11:30:29;5.07;;;2.87;;
11228;SDS011;5671;47.936;8.716;2024-02-21T11:33:01;4.67;;;2.90;;
11228;SDS011;5671;47.936;8.716;2024-02-21T11:35:32;3.20;;;2.63;;
11228;SDS011;5671;47.936;8.716;2024-02-21T11:38:08;3.70;;;2.60;;
11228;SDS011;5671;47.936;8.716;2024-02-21T11:40:39;7.20;;;3.50;;
11228;SDS011;5671;47.936;8.716;2024-02-21T11:43:06;4.00;;;2.40;;
11228;SDS011;5671;47.936;8.716;2024-02-21T11:45:35;3.60;;;2.40;;
11228;SDS011;5671;47.936;8.716;2024-02-21T11:48:03;3.47;;;1.93;;
11228;SDS011;5671;47.936;8.716;2024-02-21T11:50:31;4.63;;;2.40;;
11228;SDS011;5671;47.936;8.716;2024-02-21T11:52:58;2.90;;;2.10;;
11228;SDS011;5671;47.936;8.716;2024-02-21T11:55:24;2.60;;;1.97;;
11228;SDS011;5671;47.936;8.716;2024-02-21T11:57:51;3.97;;;2.07;;
11228;SDS011;5671;47.936;8.716;2024-02-21T12:00:19;3.20;;;1.70;;
11228;SDS011;5671;47.936;8.716;2024-02-21T12:02:48;4.07;;;2.13;;
11228;SDS011;5671;47.936;8.716;2024-02-21T12:05:16;4.53;;;1.80;;
11228;SDS011;5671;47.936;8.716;2024-02-21T12:07:45;2.57;;;1.73;;
11228;SDS011;5671;47.936;8.716;2024-02-21T12:10:12;2.63;;;1.67;;
11228;SDS011;5671;47.936;8.716;2024-02-21T12:12:39;2.67;;;1.80;;
11228;SDS011;5671;47.936;8.716;2024-02-21T12:15:07;2.67;;;2.17;;
11228;SDS011;5671;47.936;8.716;2024-02-21T12:17:34;3.03;;;2.00;;
11228;SDS011;5671;47.936;8.716;2024-02-21T12:20:03;3.07;;;1.87;;
11228;SDS011;5671;47.936;8.716;2024-02-21T12:22:33;4.37;;;1.90;;
11228;SDS011;5671;47.936;8.716;2024-02-21T12:25:02;3.80;;;1.60;;
11228;SDS011;5671;47.936;8.716;2024-02-21T12:27:30;3.00;;;1.90;;
11228;SDS011;5671;47.936;8.716;2024-02-21T12:29:57;2.10;;;1.80;;
11228;SDS011;5671;47.936;8.716;2024-02-21T12:32:24;3.70;;;2.13;;
11228;SDS011;5671;47.936;8.716;2024-02-21T12:34:51;4.23;;;1.90;;
11228;SDS011;5671;47.936;8.716;2024-02-21T12:37:19;3.30;;;2.67;;
11228;SDS011;5671;47.936;8.716;2024-02-21T12:39:46;2.33;;;1.50;;
11228;SDS011;5671;47.936;8.716;2024-02-21T12:42:13;2.83;;;1.53;;
11228;SDS011;5671;47.936;8.716;2024-02-21T12:44:39;2.30;;;1.67;;
11228;SDS011;5671;47.936;8.716;2024-02-21T12:47:07;3.83;;;2.87;;
11228;SDS011;5671;47.936;8.716;2024-02-21T12:49:33;1.70;;;1.60;;
11228;SDS011;5671;47.936;8.716;2024-02-21T12:52:00;2.03;;;1.43;;
11228;SDS011;5671;47.936;8.716;2024-02-21T12:54:30;3.67;;;2.57;;
11228;SDS011;5671;47.936;8.716;2024-02-21T12:56:57;2.17;;;1.87;;
11228;SDS011;5671;47.936;8.716;2024-02-21T12:59:27;5.47;;;2.30;;
11228;SDS011;5671;47.936;8.716;2024-02-21T13:01:54;10.33;;;3.63;;
11228;SDS011;5671;47.936;8.716;2024-02-21T13:04:21;9.57;;;8.67;;
11228;SDS011;5671;47.936;8.716;2024-02-21T13:06:49;2.60;;;1.90;;
11228;SDS011;5671;47.936;8.716;2024-02-21T13:09:16;2.87;;;2.40;;
11228;SDS011;5671;47.936;8.716;2024-02-21T13:11:44;3.07;;;1.97;;
11228;SDS011;5671;47.936;8.716;2024-02-21T13:14:11;2.83;;;1.70;;
11228;SDS011;5671;47.936;8.716;2024-02-21T13:16:38;1.90;;;1.67;;
11228;SDS011;5671;47.936;8.716;2024-02-21T13:19:05;2.40;;;1.57;;
11228;SDS011;5671;47.936;8.716;2024-02-21T13:21:33;1.60;;;1.50;;
11228;SDS011;5671;47.936;8.716;2024-02-21T13:24:00;4.03;;;1.70;;
11228;SDS011;5671;47.936;8.716;2024-02-21T13:26:27;1.97;;;1.30;;
11228;SDS011;5671;47.936;8.716;2024-02-21T13:28:55;2.23;;;1.10;;
11228;SDS011;5671;47.936;8.716;2024-02-21T13:31:22;2.27;;;1.60;;
11228;SDS011;5671;47.936;8.716;2024-02-21T13:33:50;2.23;;;1.60;;
11228;SDS011;5671;47.936;8.716;2024-02-21T13:36:17;2.03;;;1.17;;
11228;SDS011;5671;47.936;8.716;2024-02-21T13:38:44;2.23;;;1.33;;
11228;SDS011;5671;47.936;8.716;2024-02-21T13:41:12;3.07;;;1.60;;
11228;SDS011;5671;47.936;8.716;2024-02-21T13:43:39;2.63;;;1.70;;
11228;SDS011;5671;47.936;8.716;2024-02-21T13:46:07;3.20;;;1.47;;
11228;SDS011;5671;47.936;8.716;2024-02-21T13:48:36;2.70;;;1.40;;
11228;SDS011;5671;47.936;8.716;2024-02-21T13:51:03;3.53;;;1.30;;
11228;SDS011;5671;47.936;8.716;2024-02-21T13:53:30;2.43;;;1.57;;
11228;SDS011;5671;47.936;8.716;2024-02-21T13:56:00;2.80;;;1.37;;
11228;SDS011;5671;47.936;8.716;2024-02-21T13:58:27;3.53;;;1.50;;
11228;SDS011;5671;47.936;8.716;2024-02-21T14:00:54;3.37;;;1.40;;
11228;SDS011;5671;47.936;8.716;2024-02-21T14:03:22;1.60;;;1.40;;
11228;SDS011;5671;47.936;8.716;2024-02-21T14:05:50;1.37;;;1.23;;
11228;SDS011;5671;47.936;8.716;2024-02-21T14:08:17;1.80;;;1.47;;
11228;SDS011;5671;47.936;8.716;2024-02-21T14:10:44;2.70;;;1.33;;
11228;SDS011;5671;47.936;8.716;2024-02-21T14:13:12;1.67;;;1.10;;
11228;SDS011;5671;47.936;8.716;2024-02-21T14:15:39;3.23;;;1.13;;
11228;SDS011;5671;47.936;8.716;2024-02-21T14:18:09;3.93;;;1.30;;
11228;SDS011;5671;47.936;8.716;2024-02-21T14:20:37;1.33;;;0.97;;
11228;SDS011;5671;47.936;8.716;2024-02-21T14:23:05;2.03;;;1.20;;
11228;SDS011;5671;47.936;8.716;2024-02-21T14:25:32;1.27;;;1.00;;
11228;SDS011;5671;47.936;8.716;2024-02-21T14:27:59;1.37;;;0.90;;
11228;SDS011;5671;47.936;8.716;2024-02-21T14:30:26;3.20;;;1.40;;
11228;SDS011;5671;47.936;8.716;2024-02-21T14:32:53;2.33;;;1.40;;
11228;SDS011;5671;47.936;8.716;2024-02-21T14:35:20;1.63;;;1.10;;
11228;SDS011;5671;47.936;8.716;2024-02-21T14:37:48;2.50;;;1.50;;
11228;SDS011;5671;47.936;8.716;2024-02-21T14:40:15;3.87;;;1.30;;
11228;SDS011;5671;47.936;8.716;2024-02-21T14:42:44;4.80;;;1.50;;
11228;SDS011;5671;47.936;8.716;2024-02-21T14:45:11;1.93;;;1.30;;
11228;SDS011;5671;47.936;8.716;2024-02-21T14:47:38;1.97;;;1.30;;
11228;SDS011;5671;47.936;8.716;2024-02-21T14:50:06;3.10;;;1.40;;
11228;SDS011;5671;47.936;8.716;2024-02-21T14:52:33;4.47;;;1.33;;
11228;SDS011;5671;47.936;8.716;2024-02-21T14:55:03;3.40;;;1.00;;
11228;SDS011;5671;47.936;8.716;2024-02-21T14:57:30;1.30;;;1.13;;
11228;SDS011;5671;47.936;8.716;2024-02-21T14:59:57;1.93;;;1.30;;
11228;SDS011;5671;47.936;8.716;2024-02-21T15:02:24;2.40;;;1.67;;
11228;SDS011;5671;47.936;8.716;2024-02-21T15:04:52;2.07;;;1.40;;